createdAt,value
2022-12-08T00:00:14.148Z,83.69
2022-12-08T00:03:01.502Z,83.60
2022-12-08T00:05:46.439Z,83.50
2022-12-08T00:08:31.521Z,83.45
2022-12-08T00:10:59.069Z,83.40
2022-12-08T00:13:26.322Z,83.39
2022-12-08T00:15:53.472Z,83.21
2022-12-08T00:18:20.483Z,82.77
2022-12-08T00:20:47.583Z,82.51
2022-12-08T00:23:14.616Z,82.46
2022-12-08T00:25:41.628Z,82.27
2022-12-08T00:28:09.264Z,81.76
2022-12-08T00:30:36.317Z,81.74
2022-12-08T00:33:03.733Z,81.54
2022-12-08T00:35:30.786Z,81.63
2022-12-08T00:38:01.035Z,81.57
2022-12-08T00:40:28.458Z,81.54
2022-12-08T00:42:56.530Z,81.55
2022-12-08T00:45:24.498Z,81.70
2022-12-08T00:47:51.647Z,81.66
2022-12-08T00:50:18.902Z,81.50
2022-12-08T00:52:46.255Z,81.62
2022-12-08T00:55:13.834Z,81.75
2022-12-08T00:57:40.973Z,81.81
2022-12-08T01:00:10.124Z,81.77
2022-12-08T01:02:37.425Z,81.80
2022-12-08T01:05:04.567Z,81.52
2022-12-08T01:07:32.233Z,81.38
2022-12-08T01:09:59.388Z,81.40
2022-12-08T01:12:26.890Z,81.35
2022-12-08T01:14:55.889Z,81.36
2022-12-08T01:17:26.365Z,81.37
2022-12-08T01:19:54.146Z,81.52
2022-12-08T01:22:21.380Z,81.37
2022-12-08T01:24:48.731Z,81.19
2022-12-08T01:27:18.032Z,81.34
2022-12-08T01:29:45.480Z,81.25
2022-12-08T01:32:12.645Z,81.24
2022-12-08T01:34:39.791Z,81.09
2022-12-08T01:37:07.145Z,80.93
2022-12-08T01:39:34.193Z,81.02
2022-12-08T01:42:01.450Z,80.93
2022-12-08T01:45:02.949Z,81.00
2022-12-08T01:47:35.773Z,81.08
2022-12-08T01:50:03.859Z,81.17
2022-12-08T01:52:36.968Z,81.03
2022-12-08T01:55:08.500Z,80.99
2022-12-08T01:57:38.824Z,81.00
2022-12-08T02:00:09.725Z,80.99
2022-12-08T02:02:43.244Z,80.80
2022-12-08T02:05:12.092Z,80.80
2022-12-08T02:07:39.737Z,80.84
2022-12-08T02:10:08.767Z,80.75
2022-12-08T02:12:35.981Z,80.84
2022-12-08T02:15:05.445Z,80.79
2022-12-08T02:17:50.741Z,80.74
2022-12-08T02:20:37.246Z,80.75
2022-12-08T02:23:12.453Z,80.72
2022-12-08T02:25:51.462Z,80.71
2022-12-08T02:28:39.452Z,80.43
2022-12-08T02:31:22.562Z,80.42
2022-12-08T02:34:11.128Z,80.27
2022-12-08T02:36:45.559Z,80.38
2022-12-08T02:39:24.575Z,80.49
2022-12-08T02:41:58.683Z,80.63
2022-12-08T02:44:30.996Z,80.61
2022-12-08T02:47:02.615Z,80.73
2022-12-08T02:49:33.680Z,80.70
2022-12-08T02:52:29.478Z,80.72
2022-12-08T02:55:00.174Z,80.76
2022-12-08T02:57:36.589Z,80.60
